Terminal Aerodrome Forecast
Issued by NWS

Home | Current Version | Previous Version | Text Only | Print | Product List | Glossary On
Versions: 1 2 3 4 5 6 7 8 9 10 11 12 13 14 15
000
FTUS44 KEPZ 212320
TAFTCS
TAF
KTCS 212320Z 2200/2224 28021G30KT P6SM FEW080
     FM220600 30017G27KT P6SM SKC
     FM221200 32015G25KT P6SM FEW150=

USA.gov is the U.S. government's official web portal to all federal, state and local government web resources and services.